sensor_id;sensor_type;location;lat;lon;timestamp;pressure;altitude;pressure_sealevel;temperature;humidity
23619;BME280;18207;32.078;34.818;2024-02-21T00:00:38;101549.97;;;21.98;45.53
23619;BME280;18207;32.078;34.818;2024-02-21T00:03:15;101558.38;;;21.98;45.75
23619;BME280;18207;32.078;34.818;2024-02-21T00:06:00;101558.38;;;21.98;45.60
23619;BME280;18207;32.078;34.818;2024-02-21T00:08:35;101554.75;;;21.97;45.86
23619;BME280;18207;32.078;34.818;2024-02-21T00:11:10;101552.78;;;21.98;45.64
23619;BME280;18207;32.078;34.818;2024-02-21T00:13:48;101553.94;;;21.97;45.69
23619;BME280;18207;32.078;34.818;2024-02-21T00:16:31;101550.31;;;21.96;45.68
23619;BME280;18207;32.078;34.818;2024-02-21T00:19:10;101549.50;;;21.96;45.68
23619;BME280;18207;32.078;34.818;2024-02-21T00:21:48;101552.59;;;21.94;45.39
23619;BME280;18207;32.078;34.818;2024-02-21T00:24:24;101546.19;;;21.94;45.46
23619;BME280;18207;32.078;34.818;2024-02-21T00:27:02;101545.34;;;21.93;45.42
23619;BME280;18207;32.078;34.818;2024-02-21T00:29:39;101543.72;;;21.92;45.56
23619;BME280;18207;32.078;34.818;2024-02-21T00:32:17;101553.91;;;21.88;45.34
23619;BME280;18207;32.078;34.818;2024-02-21T00:34:54;101544.03;;;21.82;45.25
23619;BME280;18207;32.078;34.818;2024-02-21T00:37:31;101544.69;;;21.79;45.70
23619;BME280;18207;32.078;34.818;2024-02-21T00:40:08;101543.34;;;21.77;45.86
23619;BME280;18207;32.078;34.818;2024-02-21T00:42:45;101544.50;;;21.76;45.48
23619;BME280;18207;32.078;34.818;2024-02-21T00:45:23;101539.72;;;21.76;45.56
23619;BME280;18207;32.078;34.818;2024-02-21T00:48:03;101538.91;;;21.76;45.38
23619;BME280;18207;32.078;34.818;2024-02-21T00:50:39;101540.88;;;21.75;45.96
23619;BME280;18207;32.078;34.818;2024-02-21T00:53:15;101538.06;;;21.75;45.64
23619;BME280;18207;32.078;34.818;2024-02-21T00:55:53;101539.72;;;21.76;45.94
23619;BME280;18207;32.078;34.818;2024-02-21T00:58:33;101525.72;;;21.76;45.95
23619;BME280;18207;32.078;34.818;2024-02-21T01:01:09;101527.72;;;21.76;45.44
23619;BME280;18207;32.078;34.818;2024-02-21T01:03:49;101523.78;;;21.77;45.63
23619;BME280;18207;32.078;34.818;2024-02-21T01:06:27;101529.38;;;21.77;45.76
23619;BME280;18207;32.078;34.818;2024-02-21T01:09:04;101533.31;;;21.76;45.54
23619;BME280;18207;32.078;34.818;2024-02-21T01:11:42;101534.97;;;21.77;45.49
23619;BME280;18207;32.078;34.818;2024-02-21T01:14:19;101535.28;;;21.75;45.45
23619;BME280;18207;32.078;34.818;2024-02-21T01:16:56;101535.59;;;21.74;45.17
23619;BME280;18207;32.078;34.818;2024-02-21T01:19:35;101535.09;;;21.72;45.63
23619;BME280;18207;32.078;34.818;2024-02-21T01:22:11;101540.19;;;21.70;45.54
23619;BME280;18207;32.078;34.818;2024-02-21T01:24:47;101538.88;;;21.67;45.52
23619;BME280;18207;32.078;34.818;2024-02-21T01:27:23;101535.25;;;21.67;45.71
23619;BME280;18207;32.078;34.818;2024-02-21T01:29:58;101536.91;;;21.68;45.77
23619;BME280;18207;32.078;34.818;2024-02-21T01:32:33;101535.25;;;21.67;45.87
23619;BME280;18207;32.078;34.818;2024-02-21T01:35:11;101529.66;;;21.67;45.67
23619;BME280;18207;32.078;34.818;2024-02-21T01:37:47;101531.63;;;21.66;45.61
23619;BME280;18207;32.078;34.818;2024-02-21T01:40:25;101522.41;;;21.66;45.78
23619;BME280;18207;32.078;34.818;2024-02-21T01:43:00;101530.31;;;21.64;45.65
23619;BME280;18207;32.078;34.818;2024-02-21T01:45:35;101528.66;;;21.63;45.20
23619;BME280;18207;32.078;34.818;2024-02-21T01:48:10;101527.00;;;21.62;45.54
23619;BME280;18207;32.078;34.818;2024-02-21T01:50:49;101525.34;;;21.61;45.52
23619;BME280;18207;32.078;34.818;2024-02-21T01:53:29;101530.13;;;21.60;45.71
23619;BME280;18207;32.078;34.818;2024-02-21T01:56:08;101533.22;;;21.59;45.53
23619;BME280;18207;32.078;34.818;2024-02-21T01:58:46;101525.69;;;21.59;45.45
23619;BME280;18207;32.078;34.818;2024-02-21T02:01:23;101529.63;;;21.58;45.74
23619;BME280;18207;32.078;34.818;2024-02-21T02:04:01;101520.41;;;21.58;45.54
23619;BME280;18207;32.078;34.818;2024-02-21T02:06:46;101529.97;;;21.57;45.47
23619;BME280;18207;32.078;34.818;2024-02-21T02:09:32;101519.91;;;21.56;45.66
23619;BME280;18207;32.078;34.818;2024-02-21T02:12:11;101526.97;;;21.53;45.59
23619;BME280;18207;32.078;34.818;2024-02-21T02:14:59;101524.47;;;21.52;45.88
23619;BME280;18207;32.078;34.818;2024-02-21T02:17:37;101522.63;;;21.48;45.41
23619;BME280;18207;32.078;34.818;2024-02-21T02:20:15;101526.41;;;21.43;45.69
23619;BME280;18207;32.078;34.818;2024-02-21T02:22:51;101520.31;;;21.41;45.97
23619;BME280;18207;32.078;34.818;2024-02-21T02:25:23;101529.03;;;21.40;45.73
23619;BME280;18207;32.078;34.818;2024-02-21T02:27:53;101521.78;;;21.39;45.64
23619;BME280;18207;32.078;34.818;2024-02-21T02:30:23;101529.34;;;21.38;45.97
23619;BME280;18207;32.078;34.818;2024-02-21T02:32:53;101529.34;;;21.38;45.80
23619;BME280;18207;32.078;34.818;2024-02-21T02:37:52;101521.59;;;21.35;45.42
23619;BME280;18207;32.078;34.818;2024-02-21T02:40:24;101520.28;;;21.33;45.40
23619;BME280;18207;32.078;34.818;2024-02-21T02:42:54;101535.41;;;21.32;45.99
23619;BME280;18207;32.078;34.818;2024-02-21T02:45:25;101528.16;;;21.31;45.75
23619;BME280;18207;32.078;34.818;2024-02-21T02:47:55;101530.13;;;21.30;46.03
23619;BME280;18207;32.078;34.818;2024-02-21T02:50:27;101531.28;;;21.29;45.47
23619;BME280;18207;32.078;34.818;2024-02-21T02:52:57;101529.13;;;21.26;45.76
23619;BME280;18207;32.078;34.818;2024-02-21T02:55:29;101530.28;;;21.25;46.07
23619;BME280;18207;32.078;34.818;2024-02-21T02:57:59;101525.31;;;21.22;45.81
23619;BME280;18207;32.078;34.818;2024-02-21T03:00:29;101528.78;;;21.19;45.85
23619;BME280;18207;32.078;34.818;2024-02-21T03:02:59;101528.09;;;21.14;45.86
23619;BME280;18207;32.078;34.818;2024-02-21T03:05:29;101532.31;;;21.11;46.06
23619;BME280;18207;32.078;34.818;2024-02-21T03:07:58;101535.44;;;21.10;45.87
23619;BME280;18207;32.078;34.818;2024-02-21T03:10:30;101532.97;;;21.08;45.55
23619;BME280;18207;32.078;34.818;2024-02-21T03:13:00;101531.63;;;21.06;45.96
23619;BME280;18207;32.078;34.818;2024-02-21T03:15:29;101535.88;;;21.03;45.50
23619;BME280;18207;32.078;34.818;2024-02-21T03:18:00;101537.38;;;21.01;46.06
23619;BME280;18207;32.078;34.818;2024-02-21T03:20:30;101532.09;;;20.99;45.78
23619;BME280;18207;32.078;34.818;2024-02-21T03:23:00;101537.38;;;21.01;45.94
23619;BME280;18207;32.078;34.818;2024-02-21T03:25:31;101537.38;;;21.01;45.57
23619;BME280;18207;32.078;34.818;2024-02-21T03:28:01;101529.78;;;21.01;45.79
23619;BME280;18207;32.078;34.818;2024-02-21T03:30:31;101542.63;;;21.02;45.96
23619;BME280;18207;32.078;34.818;2024-02-21T03:33:02;101527.50;;;21.03;45.48
23619;BME280;18207;32.078;34.818;2024-02-21T03:35:32;101532.75;;;21.05;45.50
23619;BME280;18207;32.078;34.818;2024-02-21T03:38:01;101529.69;;;21.06;45.90
23619;BME280;18207;32.078;34.818;2024-02-21T03:40:33;101522.94;;;21.07;46.04
23619;BME280;18207;32.078;34.818;2024-02-21T03:43:06;101538.25;;;21.10;45.59
23619;BME280;18207;32.078;34.818;2024-02-21T03:45:35;101531.84;;;21.09;45.72
23619;BME280;18207;32.078;34.818;2024-02-21T03:48:06;101529.03;;;21.09;45.55
23619;BME280;18207;32.078;34.818;2024-02-21T03:50:36;101534.63;;;21.09;45.69
23619;BME280;18207;32.078;34.818;2024-02-21T03:53:06;101531.00;;;21.09;45.49
23619;BME280;18207;32.078;34.818;2024-02-21T03:55:38;101536.59;;;21.09;45.72
23619;BME280;18207;32.078;34.818;2024-02-21T03:58:08;101539.38;;;21.09;45.40
23619;BME280;18207;32.078;34.818;2024-02-21T04:00:38;101542.19;;;21.09;45.71
23619;BME280;18207;32.078;34.818;2024-02-21T04:03:07;101543.03;;;21.09;45.83
23619;BME280;18207;32.078;34.818;2024-02-21T04:05:37;101549.41;;;21.10;45.90
23619;BME280;18207;32.078;34.818;2024-02-21T04:08:08;101550.56;;;21.09;45.33
23619;BME280;18207;32.078;34.818;2024-02-21T04:10:39;101544.47;;;21.07;45.64
23619;BME280;18207;32.078;34.818;2024-02-21T04:13:09;101556.28;;;21.04;45.51
23619;BME280;18207;32.078;34.818;2024-02-21T04:15:40;101554.66;;;21.03;45.83
23619;BME280;18207;32.078;34.818;2024-02-21T04:18:10;101561.38;;;21.02;45.71
23619;BME280;18207;32.078;34.818;2024-02-21T04:20:40;101558.88;;;21.00;45.38
23619;BME280;18207;32.078;34.818;2024-02-21T04:23:10;101562.50;;;21.01;45.53
23619;BME280;18207;32.078;34.818;2024-02-21T04:25:41;101572.56;;;21.02;45.89
23619;BME280;18207;32.078;34.818;2024-02-21T04:28:11;101570.38;;;20.99;45.33
23619;BME280;18207;32.078;34.818;2024-02-21T04:30:40;101557.25;;;20.99;45.35
23619;BME280;18207;32.078;34.818;2024-02-21T04:33:10;101570.38;;;20.99;45.39
23619;BME280;18207;32.078;34.818;2024-02-21T04:35:40;101570.38;;;20.99;45.78
23619;BME280;18207;32.078;34.818;2024-02-21T04:38:10;101577.97;;;20.98;45.59
23619;BME280;18207;32.078;34.818;2024-02-21T04:40:41;101582.41;;;20.99;45.88
23619;BME280;18207;32.078;34.818;2024-02-21T04:43:11;101577.63;;;21.00;45.70
23619;BME280;18207;32.078;34.818;2024-02-21T04:45:41;101576.81;;;20.99;45.87
23619;BME280;18207;32.078;34.818;2024-02-21T04:48:11;101582.06;;;21.01;45.36
23619;BME280;18207;32.078;34.818;2024-02-21T04:50:41;101583.53;;;20.98;45.86
23619;BME280;18207;32.078;34.818;2024-02-21T04:53:11;101584.97;;;20.96;45.28
23619;BME280;18207;32.078;34.818;2024-02-21T04:55:51;101582.53;;;20.94;45.48
23619;BME280;18207;32.078;34.818;2024-02-21T04:58:22;101584.00;;;20.92;45.93
23619;BME280;18207;32.078;34.818;2024-02-21T05:00:52;101591.53;;;20.91;45.67
23619;BME280;18207;32.078;34.818;2024-02-21T05:03:23;101591.03;;;20.89;45.74
23619;BME280;18207;32.078;34.818;2024-02-21T05:05:53;101588.53;;;20.88;45.76
23619;BME280;18207;32.078;34.818;2024-02-21T05:08:24;101593.31;;;20.87;45.41
23619;BME280;18207;32.078;34.818;2024-02-21T05:10:55;101590.53;;;20.87;45.54
23619;BME280;18207;32.078;34.818;2024-02-21T05:13:26;101600.56;;;20.88;45.81
23619;BME280;18207;32.078;34.818;2024-02-21T05:15:56;101600.56;;;20.88;45.89
23619;BME280;18207;32.078;34.818;2024-02-21T05:18:29;101593.00;;;20.89;45.63
23619;BME280;18207;32.078;34.818;2024-02-21T05:21:00;101603.53;;;20.92;45.77
23619;BME280;18207;32.078;34.818;2024-02-21T05:23:30;101606.53;;;20.95;46.09
23619;BME280;18207;32.078;34.818;2024-02-21T05:26:02;101616.41;;;21.01;46.22
23619;BME280;18207;32.078;34.818;2024-02-21T05:28:32;101624.38;;;21.08;45.97
23619;BME280;18207;32.078;34.818;2024-02-21T05:31:02;101626.72;;;21.14;46.32
23619;BME280;18207;32.078;34.818;2024-02-21T05:33:32;101621.81;;;21.20;46.21
23619;BME280;18207;32.078;34.818;2024-02-21T05:36:02;101618.25;;;21.28;45.77
23619;BME280;18207;32.078;34.818;2024-02-21T05:38:32;101620.59;;;21.34;46.20
23619;BME280;18207;32.078;34.818;2024-02-21T05:41:04;101622.94;;;21.41;46.17
23619;BME280;18207;32.078;34.818;2024-02-21T05:43:38;101628.91;;;21.48;46.12
23619;BME280;18207;32.078;34.818;2024-02-21T05:46:08;101631.25;;;21.54;46.14
23619;BME280;18207;32.078;34.818;2024-02-21T05:48:38;101631.63;;;21.61;46.16
23619;BME280;18207;32.078;34.818;2024-02-21T05:51:08;101637.63;;;21.68;46.16
23619;BME280;18207;32.078;34.818;2024-02-21T05:53:37;101636.84;;;21.76;46.00
23619;BME280;18207;32.078;34.818;2024-02-21T05:56:13;101642.44;;;21.84;46.08
23619;BME280;18207;32.078;34.818;2024-02-21T05:58:43;101640.03;;;21.91;46.01
23619;BME280;18207;32.078;34.818;2024-02-21T06:01:13;101647.94;;;21.98;46.06
23619;BME280;18207;32.078;34.818;2024-02-21T06:03:43;101645.19;;;22.06;45.99
23619;BME280;18207;32.078;34.818;2024-02-21T06:06:13;101651.13;;;22.13;45.88
23619;BME280;18207;32.078;34.818;2024-02-21T06:08:43;101644.25;;;22.19;45.86
23619;BME280;18207;32.078;34.818;2024-02-21T06:11:15;101644.09;;;22.24;45.97
23619;BME280;18207;32.078;34.818;2024-02-21T06:13:45;101642.50;;;22.32;45.90
23619;BME280;18207;32.078;34.818;2024-02-21T06:16:14;101651.22;;;22.39;45.93
23619;BME280;18207;32.078;34.818;2024-02-21T06:18:44;101643.50;;;22.44;45.83
23619;BME280;18207;32.078;34.818;2024-02-21T06:21:14;101659.84;;;22.50;46.09
23619;BME280;18207;32.078;34.818;2024-02-21T06:23:44;101654.09;;;22.55;45.54
23619;BME280;18207;32.078;34.818;2024-02-21T06:26:16;101655.22;;;22.63;45.76
23619;BME280;18207;32.078;34.818;2024-02-21T06:28:45;101660.84;;;22.71;45.62
23619;BME280;18207;32.078;34.818;2024-02-21T06:31:15;101668.78;;;22.78;45.77
23619;BME280;18207;32.078;34.818;2024-02-21T06:33:45;101658.75;;;22.85;45.77
23619;BME280;18207;32.078;34.818;2024-02-21T06:36:15;101663.84;;;22.92;45.30
23619;BME280;18207;32.078;34.818;2024-02-21T06:38:45;101667.78;;;22.99;45.65
23619;BME280;18207;32.078;34.818;2024-02-21T06:41:18;101670.66;;;23.08;45.66
23619;BME280;18207;32.078;34.818;2024-02-21T06:43:47;101671.81;;;23.15;45.63
23619;BME280;18207;32.078;34.818;2024-02-21T06:46:28;101666.16;;;23.24;45.73
23619;BME280;18207;32.078;34.818;2024-02-21T06:48:58;101660.06;;;23.30;45.57
23619;BME280;18207;32.078;34.818;2024-02-21T06:51:31;101663.69;;;23.39;45.50
23619;BME280;18207;32.078;34.818;2024-02-21T06:54:02;101672.41;;;23.46;45.73
23619;BME280;18207;32.078;34.818;2024-02-21T06:56:34;101667.13;;;23.53;45.87
23619;BME280;18207;32.078;34.818;2024-02-21T06:59:04;101667.78;;;23.58;45.54
23619;BME280;18207;32.078;34.818;2024-02-21T07:01:34;101668.09;;;23.65;45.20
23619;BME280;18207;32.078;34.818;2024-02-21T07:04:04;101674.34;;;23.71;45.18
23619;BME280;18207;32.078;34.818;2024-02-21T07:06:34;101668.56;;;23.76;45.32
23619;BME280;18207;32.078;34.818;2024-02-21T07:09:04;101666.75;;;23.80;45.21
23619;BME280;18207;32.078;34.818;2024-02-21T07:11:35;101667.41;;;23.85;45.15
23619;BME280;18207;32.078;34.818;2024-02-21T07:14:05;101669.19;;;23.90;45.26
23619;BME280;18207;32.078;34.818;2024-02-21T07:16:35;101666.19;;;23.95;45.05
23619;BME280;18207;32.078;34.818;2024-02-21T07:19:05;101660.06;;;24.01;44.99
23619;BME280;18207;32.078;34.818;2024-02-21T07:21:35;101659.88;;;24.06;44.87
23619;BME280;18207;32.078;34.818;2024-02-21T07:24:06;101664.97;;;24.13;44.97
23619;BME280;18207;32.078;34.818;2024-02-21T07:26:41;101664.78;;;24.17;44.80
23619;BME280;18207;32.078;34.818;2024-02-21T07:29:15;101667.41;;;24.22;44.70
23619;BME280;18207;32.078;34.818;2024-02-21T07:31:45;101668.38;;;24.26;44.45
23619;BME280;18207;32.078;34.818;2024-02-21T07:34:17;101674.97;;;24.30;44.46
23619;BME280;18207;32.078;34.818;2024-02-21T07:36:47;101678.72;;;24.34;44.34
23619;BME280;18207;32.078;34.818;2024-02-21T07:39:16;101674.09;;;24.38;43.99
23619;BME280;18207;32.078;34.818;2024-02-21T07:41:48;101668.25;;;24.43;44.21
23619;BME280;18207;32.078;34.818;2024-02-21T07:44:18;101679.34;;;24.48;44.17
23619;BME280;18207;32.078;34.818;2024-02-21T07:46:47;101672.72;;;24.53;44.09
23619;BME280;18207;32.078;34.818;2024-02-21T07:49:18;101673.34;;;24.58;44.02
23619;BME280;18207;32.078;34.818;2024-02-21T07:51:48;101674.28;;;24.62;44.03
23619;BME280;18207;32.078;34.818;2024-02-21T07:54:17;101670.94;;;24.69;44.02
23619;BME280;18207;32.078;34.818;2024-02-21T07:56:49;101673.56;;;24.74;43.82
23619;BME280;18207;32.078;34.818;2024-02-21T07:59:19;101671.38;;;24.79;43.79
23619;BME280;18207;32.078;34.818;2024-02-21T08:01:52;101668.34;;;24.84;43.76
23619;BME280;18207;32.078;34.818;2024-02-21T08:04:25;101670.63;;;24.91;43.76
23619;BME280;18207;32.078;34.818;2024-02-21T08:06:55;101671.25;;;24.96;43.58
23619;BME280;18207;32.078;34.818;2024-02-21T08:09:27;101672.22;;;25.00;43.18
23619;BME280;18207;32.078;34.818;2024-02-21T08:11:58;101677.63;;;25.05;43.35
23619;BME280;18207;32.078;34.818;2024-02-21T08:14:28;101677.44;;;25.10;43.41
23619;BME280;18207;32.078;34.818;2024-02-21T08:16:58;101673.63;;;25.14;43.23
23619;BME280;18207;32.078;34.818;2024-02-21T08:19:28;101676.69;;;25.21;43.21
23619;BME280;18207;32.078;34.818;2024-02-21T08:21:58;101670.84;;;25.26;43.16
23619;BME280;18207;32.078;34.818;2024-02-21T08:24:31;101688.31;;;25.32;42.97
23619;BME280;18207;32.078;34.818;2024-02-21T08:27:03;101678.84;;;25.36;42.89
23619;BME280;18207;32.078;34.818;2024-02-21T08:29:32;101668.06;;;25.38;42.79
23619;BME280;18207;32.078;34.818;2024-02-21T08:32:03;101676.31;;;25.43;42.90
23619;BME280;18207;32.078;34.818;2024-02-21T08:34:33;101665.19;;;25.47;42.76
23619;BME280;18207;32.078;34.818;2024-02-21T08:37:03;101664.16;;;25.51;42.78
23619;BME280;18207;32.078;34.818;2024-02-21T08:39:33;101663.91;;;25.56;42.74
23619;BME280;18207;32.078;34.818;2024-02-21T08:42:05;101656.91;;;25.62;42.71
23619;BME280;18207;32.078;34.818;2024-02-21T08:44:35;101664.31;;;25.67;42.53
23619;BME280;18207;32.078;34.818;2024-02-21T08:47:05;101658.44;;;25.72;42.62
23619;BME280;18207;32.078;34.818;2024-02-21T08:49:39;101656.25;;;25.77;42.40
23619;BME280;18207;32.078;34.818;2024-02-21T08:52:09;101644.78;;;25.82;42.64
23619;BME280;18207;32.078;34.818;2024-02-21T08:54:39;101651.81;;;25.88;42.36
23619;BME280;18207;32.078;34.818;2024-02-21T08:57:20;101644.81;;;25.94;42.42
23619;BME280;18207;32.078;34.818;2024-02-21T08:59:49;101635.31;;;25.98;42.29
23619;BME280;18207;32.078;34.818;2024-02-21T09:02:19;101644.34;;;26.04;42.24
23619;BME280;18207;32.078;34.818;2024-02-21T09:04:49;101636.81;;;26.08;42.14
23619;BME280;18207;32.078;34.818;2024-02-21T09:07:19;101636.94;;;26.11;42.04
23619;BME280;18207;32.078;34.818;2024-02-21T09:09:49;101627.31;;;26.12;41.92
23619;BME280;18207;32.078;34.818;2024-02-21T09:12:20;101628.16;;;26.13;41.71
23619;BME280;18207;32.078;34.818;2024-02-21T09:14:51;101620.88;;;26.12;41.76
23619;BME280;18207;32.078;34.818;2024-02-21T09:17:20;101620.03;;;26.11;41.44
23619;BME280;18207;32.078;34.818;2024-02-21T09:19:50;101610.28;;;26.09;41.68
23619;BME280;18207;32.078;34.818;2024-02-21T09:22:20;101606.19;;;26.06;41.54
23619;BME280;18207;32.078;34.818;2024-02-21T09:24:50;101598.06;;;26.05;41.72
23619;BME280;18207;32.078;34.818;2024-02-21T09:27:21;101605.72;;;26.04;41.72
23619;BME280;18207;32.078;34.818;2024-02-21T09:29:51;101592.00;;;26.03;41.74
23619;BME280;18207;32.078;34.818;2024-02-21T09:32:24;101603.25;;;26.03;41.72
23619;BME280;18207;32.078;34.818;2024-02-21T09:34:56;101595.97;;;26.02;41.72
23619;BME280;18207;32.078;34.818;2024-02-21T09:37:29;101595.13;;;26.01;41.34
23619;BME280;18207;32.078;34.818;2024-02-21T09:40:00;101586.69;;;26.01;41.55
23619;BME280;18207;32.078;34.818;2024-02-21T09:42:38;101589.50;;;26.01;41.53
23619;BME280;18207;32.078;34.818;2024-02-21T09:45:18;101585.03;;;26.00;41.29
23619;BME280;18207;32.078;34.818;2024-02-21T09:48:13;101576.25;;;26.02;41.64
23619;BME280;18207;32.078;34.818;2024-02-21T09:50:47;101567.91;;;26.05;41.73
23619;BME280;18207;32.078;34.818;2024-02-21T09:53:19;101566.50;;;26.11;41.29
23619;BME280;18207;32.078;34.818;2024-02-21T09:55:50;101565.91;;;26.18;41.27
23619;BME280;18207;32.078;34.818;2024-02-21T09:58:23;101562.88;;;26.23;41.36
23619;BME280;18207;32.078;34.818;2024-02-21T10:00:56;101547.22;;;26.25;41.11
23619;BME280;18207;32.078;34.818;2024-02-21T10:03:31;101545.22;;;26.26;40.96
23619;BME280;18207;32.078;34.818;2024-02-21T10:06:01;101539.13;;;26.24;40.96
23619;BME280;18207;32.078;34.818;2024-02-21T10:08:32;101541.50;;;26.22;40.69
23619;BME280;18207;32.078;34.818;2024-02-21T10:11:04;101533.38;;;26.20;41.14
23619;BME280;18207;32.078;34.818;2024-02-21T10:13:41;101526.81;;;26.16;40.78
23619;BME280;18207;32.078;34.818;2024-02-21T10:16:13;101526.25;;;26.11;40.81
23619;BME280;18207;32.078;34.818;2024-02-21T10:18:43;101530.59;;;26.08;40.77
23619;BME280;18207;32.078;34.818;2024-02-21T10:21:13;101528.47;;;26.05;40.75
23619;BME280;18207;32.078;34.818;2024-02-21T10:23:45;101524.38;;;26.03;40.72
23619;BME280;18207;32.078;34.818;2024-02-21T10:26:17;101521.41;;;25.99;40.68
23619;BME280;18207;32.078;34.818;2024-02-21T10:28:50;101514.50;;;25.97;40.59
23619;BME280;18207;32.078;34.818;2024-02-21T10:31:25;101509.94;;;25.93;40.76
23619;BME280;18207;32.078;34.818;2024-02-21T10:33:58;101511.47;;;25.90;40.78
23619;BME280;18207;32.078;34.818;2024-02-21T10:36:32;101503.72;;;25.87;40.49
23619;BME280;18207;32.078;34.818;2024-02-21T10:39:02;101499.63;;;25.85;40.57
23619;BME280;18207;32.078;34.818;2024-02-21T10:41:32;101498.66;;;25.81;40.63
23619;BME280;18207;32.078;34.818;2024-02-21T10:44:05;101490.59;;;25.79;40.78
23619;BME280;18207;32.078;34.818;2024-02-21T10:46:40;101493.25;;;25.76;40.64
23619;BME280;18207;32.078;34.818;2024-02-21T10:49:22;101486.34;;;25.73;40.41
23619;BME280;18207;32.078;34.818;2024-02-21T10:52:00;101476.25;;;25.72;40.50
23619;BME280;18207;32.078;34.818;2024-02-21T10:54:44;101474.13;;;25.69;40.54
23619;BME280;18207;32.078;34.818;2024-02-21T10:57:21;101465.56;;;25.66;40.58
23619;BME280;18207;32.078;34.818;2024-02-21T10:59:55;101460.31;;;25.64;40.35
23619;BME280;18207;32.078;34.818;2024-02-21T11:02:29;101462.66;;;25.62;40.46
23619;BME280;18207;32.078;34.818;2024-02-21T11:05:01;101460.16;;;25.61;40.47
23619;BME280;18207;32.078;34.818;2024-02-21T11:07:36;101459.72;;;25.59;40.44
23619;BME280;18207;32.078;34.818;2024-02-21T11:10:20;101457.22;;;25.57;40.69
23619;BME280;18207;32.078;34.818;2024-02-21T11:12:53;101453.13;;;25.55;40.47
23619;BME280;18207;32.078;34.818;2024-02-21T11:15:28;101455.16;;;25.54;40.34
23619;BME280;18207;32.078;34.818;2024-02-21T11:18:00;101455.47;;;25.53;40.29
23619;BME280;18207;32.078;34.818;2024-02-21T11:20:35;101449.72;;;25.49;40.28
23619;BME280;18207;32.078;34.818;2024-02-21T11:23:05;101454.88;;;25.47;40.42
23619;BME280;18207;32.078;34.818;2024-02-21T11:25:35;101457.25;;;25.45;40.26
23619;BME280;18207;32.078;34.818;2024-02-21T11:28:06;101463.22;;;25.44;40.14
23619;BME280;18207;32.078;34.818;2024-02-21T11:30:40;101458.75;;;25.43;40.36
23619;BME280;18207;32.078;34.818;2024-02-21T11:33:13;101446.22;;;25.40;40.25
23619;BME280;18207;32.078;34.818;2024-02-21T11:35:43;101450.19;;;25.39;40.05
23619;BME280;18207;32.078;34.818;2024-02-21T11:38:14;101448.56;;;25.38;40.15
23619;BME280;18207;32.078;34.818;2024-02-21T11:40:46;101443.66;;;25.35;40.07
23619;BME280;18207;32.078;34.818;2024-02-21T11:43:17;101446.00;;;25.33;39.99
23619;BME280;18207;32.078;34.818;2024-02-21T11:45:50;101450.31;;;25.31;39.94
23619;BME280;18207;32.078;34.818;2024-02-21T11:48:20;101456.66;;;25.28;40.05
23619;BME280;18207;32.078;34.818;2024-02-21T11:50:54;101454.16;;;25.26;40.03
23619;BME280;18207;32.078;34.818;2024-02-21T11:53:24;101445.63;;;25.23;39.94
23619;BME280;18207;32.078;34.818;2024-02-21T11:56:02;101450.75;;;25.21;40.17
23619;BME280;18207;32.078;34.818;2024-02-21T11:58:33;101449.47;;;25.18;40.00
23619;BME280;18207;32.078;34.818;2024-02-21T12:01:04;101443.03;;;25.18;39.85
23619;BME280;18207;32.078;34.818;2024-02-21T12:03:35;101440.13;;;25.14;40.16
23619;BME280;18207;32.078;34.818;2024-02-21T12:06:07;101452.53;;;25.13;39.83
23619;BME280;18207;32.078;34.818;2024-02-21T12:08:42;101454.50;;;25.13;39.84
23619;BME280;18207;32.078;34.818;2024-02-21T12:11:22;101443.63;;;25.11;40.01
23619;BME280;18207;32.078;34.818;2024-02-21T12:14:03;101443.94;;;25.10;39.80
23619;BME280;18207;32.078;34.818;2024-02-21T12:16:37;101441.47;;;25.08;39.91
23619;BME280;18207;32.078;34.818;2024-02-21T12:19:08;101433.75;;;25.06;39.72
23619;BME280;18207;32.078;34.818;2024-02-21T12:21:38;101435.72;;;25.05;39.66
23619;BME280;18207;32.078;34.818;2024-02-21T12:24:15;101441.69;;;25.04;39.71
23619;BME280;18207;32.078;34.818;2024-02-21T12:26:45;101433.16;;;25.00;39.58
23619;BME280;18207;32.078;34.818;2024-02-21T12:29:17;101435.13;;;25.00;39.44
23619;BME280;18207;32.078;34.818;2024-02-21T12:31:50;101436.66;;;24.97;39.53
23619;BME280;18207;32.078;34.818;2024-02-21T12:34:20;101440.97;;;24.95;39.65
23619;BME280;18207;32.078;34.818;2024-02-21T12:37:13;101440.50;;;24.93;39.47
23619;BME280;18207;32.078;34.818;2024-02-21T12:39:44;101435.25;;;24.91;39.58
23619;BME280;18207;32.078;34.818;2024-02-21T12:42:13;101431.94;;;24.89;39.67
23619;BME280;18207;32.078;34.818;2024-02-21T12:44:43;101431.13;;;24.89;39.63
23619;BME280;18207;32.078;34.818;2024-02-21T12:47:15;101432.28;;;24.88;39.83
23619;BME280;18207;32.078;34.818;2024-02-21T12:49:47;101437.09;;;24.87;39.81
23619;BME280;18207;32.078;34.818;2024-02-21T12:52:17;101439.44;;;24.85;39.73
23619;BME280;18207;32.078;34.818;2024-02-21T12:54:48;101433.00;;;24.85;39.71
23619;BME280;18207;32.078;34.818;2024-02-21T12:57:20;101435.81;;;24.85;39.62
23619;BME280;18207;32.078;34.818;2024-02-21T12:59:56;101432.16;;;24.84;39.71
23619;BME280;18207;32.078;34.818;2024-02-21T13:02:28;101429.69;;;24.83;39.82
23619;BME280;18207;32.078;34.818;2024-02-21T13:04:58;101433.69;;;24.82;39.61
23619;BME280;18207;32.078;34.818;2024-02-21T13:07:29;101430.06;;;24.81;39.56
23619;BME280;18207;32.078;34.818;2024-02-21T13:10:03;101432.03;;;24.81;39.50